»·PEaware :: N1812C KLAX-KSNA

N1812C :: KLAX-KSNA

FLIGHT INFORMATION

Flight Status: Arrived
Operator: Privately registered:
United States
More flights under this callsign
Pilot: David G. (31571)
Aircraft: MOONEY M-20 201 202 205 220 ATS MSE
(M20P)
More flights by this aircraft type
Origin: KLAX Los Angeles Intl
United States
Destination: KSNA John Wayne-Orange Co
United States
More flights between these airports :: More routes between these airports
Route: SLI8 SLI
File this flight plan on PilotEdge
Remarks:
Altitude:
(Current/Filed)
5,000ft
Speed:
(Current/Filed)
150kts
Departed: 22-Oct-20 03:45 PM
Arrived: 22-Oct-20 04:20 PM
Distance/Time
Traveled:
31nm/0:34
Distance/Time
To Go:
Arrived

Flight Plot

Page will automatically refresh every two minutes.

Flight plan parsing failed; only flown route is shown


Map Options




Map Legend


Flown Route
Filed Route
Departure Airport
Arrival Airport
Navaid (VOR, NDB)
Fix

Horizontal Profiles

Position Reports

Time Latitude Longitude Heading Altitude Ground
Speed
22-Oct-20 15:27 33.933781 -118.389008 173 111ft 0kts
22-Oct-20 15:28 33.933781 -118.389008 173 111ft 0kts
22-Oct-20 15:29 33.933782 -118.389009 173 120ft 0kts
22-Oct-20 15:30 33.933782 -118.389009 173 120ft 0kts
22-Oct-20 15:31 33.933782 -118.389008 173 120ft 0kts
22-Oct-20 15:32 33.933782 -118.389008 173 120ft 0kts
22-Oct-20 15:33 33.933782 -118.389008 173 120ft 0kts
22-Oct-20 15:34 33.933782 -118.389008 173 120ft 0kts
22-Oct-20 15:35 33.933782 -118.389008 173 120ft 0kts
22-Oct-20 15:36 33.933782 -118.389008 173 120ft 0kts
22-Oct-20 15:37 33.933782 -118.389008 173 120ft 0kts
22-Oct-20 15:38 33.933782 -118.389008 173 120ft 0kts
22-Oct-20 15:39 33.933782 -118.389008 173 120ft 0kts
22-Oct-20 15:41 33.933782 -118.389008 173 120ft 0kts
22-Oct-20 15:42 33.935588 -118.388004 76 119ft 16kts
22-Oct-20 15:43 33.936515 -118.382800 10 119ft 0kts
22-Oct-20 15:44 33.936770 -118.382788 352 119ft 10kts
22-Oct-20 15:45 33.935371 -118.404776 264 435ft 121kts
22-Oct-20 15:46 33.925895 -118.450569 216 1258ft 161kts
22-Oct-20 15:47 33.888431 -118.481251 213 2260ft 160kts
22-Oct-20 15:48 33.850996 -118.511811 213 2967ft 171kts
22-Oct-20 15:49 33.809885 -118.545501 213 2998ft 180kts
22-Oct-20 15:50 33.765373 -118.541665 162 3000ft 165kts
22-Oct-20 15:51 33.721638 -118.525718 162 3000ft 161kts
22-Oct-20 15:52 33.678761 -118.510301 162 3001ft 168kts
22-Oct-20 15:53 33.632463 -118.493778 162 3000ft 165kts
22-Oct-20 15:54 33.607780 -118.462029 64 3003ft 158kts
22-Oct-20 15:54 33.627991 -118.425430 49 3530ft 158kts
22-Oct-20 15:56 33.658025 -118.370794 62 3993ft 183kts
22-Oct-20 15:57 33.679518 -118.313976 61 3995ft 189kts
22-Oct-20 15:58 33.701817 -118.257340 62 3993ft 187kts
22-Oct-20 15:59 33.726642 -118.202443 69 3991ft 189kts
22-Oct-20 15:59 33.743049 -118.153615 63 3988ft 188kts
22-Oct-20 16:01 33.768260 -118.092866 73 3999ft 168kts
22-Oct-20 16:01 33.786172 -118.051297 61 3942ft 166kts
22-Oct-20 16:03 33.812549 -117.995234 61 3936ft 165kts
22-Oct-20 16:03 33.828087 -117.953743 75 3936ft 165kts
22-Oct-20 16:05 33.849244 -117.894567 63 3933ft 166kts
22-Oct-20 16:05 33.866778 -117.853656 63 3931ft 164kts
22-Oct-20 16:06 33.888468 -117.802649 63 3458ft 164kts
22-Oct-20 16:07 33.914431 -117.763267 28 3434ft 151kts
22-Oct-20 16:08 33.951522 -117.738986 28 3429ft 160kts
22-Oct-20 16:09 33.970032 -117.703370 143 3414ft 151kts
22-Oct-20 16:10 33.930975 -117.714639 172 3245ft 153kts
22-Oct-20 16:11 33.894670 -117.729999 207 3237ft 162kts
22-Oct-20 16:12 33.854376 -117.755566 208 3097ft 141kts
22-Oct-20 16:13 33.819929 -117.777433 208 2746ft 134kts
22-Oct-20 16:14 33.784057 -117.800206 208 2236ft 155kts
22-Oct-20 16:15 33.749738 -117.821946 208 1546ft 116kts
22-Oct-20 16:16 33.724623 -117.837866 208 1016ft 92kts
22-Oct-20 16:17 33.702556 -117.851854 208 520ft 75kts
22-Oct-20 16:18 33.683992 -117.863587 208 140ft 71kts
22-Oct-20 16:19 33.675924 -117.869867 289 55ft 0kts

Navigation Log

Ident Type
Flight plan parsing failed, navigation log unavailable